sensor_id;sensor_type;location;lat;lon;timestamp;pressure;altitude;pressure_sealevel;temperature;humidity
75553;BME280;64136;53.118;17.996;2023-02-28T00:00:24;102591.42;;;-2.82;74.21
75553;BME280;64136;53.118;17.996;2023-02-28T00:02:50;102588.65;;;-2.91;74.68
75553;BME280;64136;53.118;17.996;2023-02-28T00:05:20;102589.71;;;-2.96;75.00
75553;BME280;64136;53.118;17.996;2023-02-28T00:07:47;102589.84;;;-2.98;74.92
75553;BME280;64136;53.118;17.996;2023-02-28T00:10:17;102590.34;;;-2.99;74.93
75553;BME280;64136;53.118;17.996;2023-02-28T00:15:13;102582.11;;;-3.11;75.61
75553;BME280;64136;53.118;17.996;2023-02-28T00:17:40;102581.81;;;-3.16;74.80
75553;BME280;64136;53.118;17.996;2023-02-28T00:20:08;102582.15;;;-3.17;74.61
75553;BME280;64136;53.118;17.996;2023-02-28T00:22:37;102583.59;;;-3.21;75.76
75553;BME280;64136;53.118;17.996;2023-02-28T00:27:30;102582.36;;;-3.15;74.03
75553;BME280;64136;53.118;17.996;2023-02-28T00:29:56;102581.98;;;-3.09;74.59
75553;BME280;64136;53.118;17.996;2023-02-28T00:32:23;102584.81;;;-3.14;76.19
75553;BME280;64136;53.118;17.996;2023-02-28T00:34:49;102584.11;;;-3.21;76.25
75553;BME280;64136;53.118;17.996;2023-02-28T00:37:15;102586.02;;;-3.28;76.61
75553;BME280;64136;53.118;17.996;2023-02-28T00:39:42;102588.99;;;-3.35;76.65
75553;BME280;64136;53.118;17.996;2023-02-28T00:44:34;102581.25;;;-3.33;75.87
75553;BME280;64136;53.118;17.996;2023-02-28T00:47:01;102582.34;;;-3.30;75.03
75553;BME280;64136;53.118;17.996;2023-02-28T00:49:27;102584.05;;;-3.31;75.63
75553;BME280;64136;53.118;17.996;2023-02-28T00:51:55;102583.36;;;-3.39;76.91
75553;BME280;64136;53.118;17.996;2023-02-28T00:54:22;102585.23;;;-3.47;77.03
75553;BME280;64136;53.118;17.996;2023-02-28T00:56:49;102584.09;;;-3.50;77.05
75553;BME280;64136;53.118;17.996;2023-02-28T00:59:17;102580.45;;;-3.51;76.07
75553;BME280;64136;53.118;17.996;2023-02-28T01:01:45;102582.52;;;-3.51;76.59
75553;BME280;64136;53.118;17.996;2023-02-28T01:04:12;102585.11;;;-3.52;77.41
75553;BME280;64136;53.118;17.996;2023-02-28T01:06:40;102585.23;;;-3.54;77.30
75553;BME280;64136;53.118;17.996;2023-02-28T01:09:11;102589.64;;;-3.58;77.20
75553;BME280;64136;53.118;17.996;2023-02-28T01:11:38;102592.80;;;-3.62;77.19
75553;BME280;64136;53.118;17.996;2023-02-28T01:14:05;102600.82;;;-3.67;77.49
75553;BME280;64136;53.118;17.996;2023-02-28T01:16:31;102598.90;;;-3.67;76.84
75553;BME280;64136;53.118;17.996;2023-02-28T01:18:58;102596.46;;;-3.61;75.78
75553;BME280;64136;53.118;17.996;2023-02-28T01:21:24;102590.92;;;-3.55;75.43
75553;BME280;64136;53.118;17.996;2023-02-28T01:23:51;102588.47;;;-3.49;74.81
75553;BME280;64136;53.118;17.996;2023-02-28T01:26:22;102588.80;;;-3.42;74.78
75553;BME280;64136;53.118;17.996;2023-02-28T01:28:49;102588.91;;;-3.38;74.57
75553;BME280;64136;53.118;17.996;2023-02-28T01:31:17;102587.41;;;-3.36;74.56
75553;BME280;64136;53.118;17.996;2023-02-28T01:33:44;102581.88;;;-3.42;75.29
75553;BME280;64136;53.118;17.996;2023-02-28T01:36:14;102576.20;;;-3.47;75.07
75553;BME280;64136;53.118;17.996;2023-02-28T01:38:41;102574.81;;;-3.48;75.21
75553;BME280;64136;53.118;17.996;2023-02-28T01:41:07;102577.64;;;-3.52;75.91
75553;BME280;64136;53.118;17.996;2023-02-28T01:43:58;102579.58;;;-3.59;76.39
75553;BME280;64136;53.118;17.996;2023-02-28T01:46:25;102577.55;;;-3.56;75.47
75553;BME280;64136;53.118;17.996;2023-02-28T01:48:58;102573.45;;;-3.54;75.36
75553;BME280;64136;53.118;17.996;2023-02-28T01:51:28;102576.10;;;-3.52;74.87
75553;BME280;64136;53.118;17.996;2023-02-28T01:53:59;102575.73;;;-3.53;75.60
75553;BME280;64136;53.118;17.996;2023-02-28T01:56:30;102573.54;;;-3.58;75.34
75553;BME280;64136;53.118;17.996;2023-02-28T01:58:59;102569.71;;;-3.58;75.13
75553;BME280;64136;53.118;17.996;2023-02-28T02:01:27;102567.88;;;-3.56;74.96
75553;BME280;64136;53.118;17.996;2023-02-28T02:03:55;102566.34;;;-3.54;74.61
75553;BME280;64136;53.118;17.996;2023-02-28T02:06:29;102569.52;;;-3.52;74.68
75553;BME280;64136;53.118;17.996;2023-02-28T02:08:56;102568.33;;;-3.51;74.38
75553;BME280;64136;53.118;17.996;2023-02-28T02:11:26;102570.91;;;-3.51;74.41
75553;BME280;64136;53.118;17.996;2023-02-28T02:20:08;102577.33;;;-3.72;75.82
75553;BME280;64136;53.118;17.996;2023-02-28T02:23:02;102580.46;;;-3.71;75.43
75553;BME280;64136;53.118;17.996;2023-02-28T02:25:52;102579.73;;;-3.73;75.44
75553;BME280;64136;53.118;17.996;2023-02-28T02:28:40;102576.05;;;-3.74;75.12
75553;BME280;64136;53.118;17.996;2023-02-28T02:37:02;102586.27;;;-3.74;75.81
75553;BME280;64136;53.118;17.996;2023-02-28T02:39:44;102586.76;;;-3.82;76.18
75553;BME280;64136;53.118;17.996;2023-02-28T02:42:33;102583.84;;;-3.87;75.73
75553;BME280;64136;53.118;17.996;2023-02-28T02:45:10;102579.02;;;-3.86;75.35
75553;BME280;64136;53.118;17.996;2023-02-28T02:47:39;102584.17;;;-3.87;76.99
75553;BME280;64136;53.118;17.996;2023-02-28T02:50:08;102585.73;;;-3.95;78.02
75553;BME280;64136;53.118;17.996;2023-02-28T02:52:43;102589.77;;;-3.98;77.90
75553;BME280;64136;53.118;17.996;2023-02-28T02:55:12;102589.98;;;-4.04;78.12
75553;BME280;64136;53.118;17.996;2023-02-28T02:57:52;102583.65;;;-4.08;77.19
75553;BME280;64136;53.118;17.996;2023-02-28T03:00:24;102583.21;;;-4.05;76.73
75553;BME280;64136;53.118;17.996;2023-02-28T03:02:54;102586.98;;;-3.99;76.52
75553;BME280;64136;53.118;17.996;2023-02-28T03:05:26;102588.19;;;-3.99;76.48
75553;BME280;64136;53.118;17.996;2023-02-28T03:07:52;102582.14;;;-3.99;76.39
75553;BME280;64136;53.118;17.996;2023-02-28T03:10:32;102582.47;;;-4.00;76.14
75553;BME280;64136;53.118;17.996;2023-02-28T03:16:00;102587.88;;;-4.05;76.51
75553;BME280;64136;53.118;17.996;2023-02-28T03:18:40;102588.35;;;-4.01;76.12
75553;BME280;64136;53.118;17.996;2023-02-28T03:21:34;102590.08;;;-3.93;75.52
75553;BME280;64136;53.118;17.996;2023-02-28T03:24:10;102586.80;;;-3.86;75.31
75553;BME280;64136;53.118;17.996;2023-02-28T03:27:08;102587.11;;;-3.82;75.55
75553;BME280;64136;53.118;17.996;2023-02-28T03:29:39;102591.39;;;-3.84;75.46
75553;BME280;64136;53.118;17.996;2023-02-28T03:32:19;102588.94;;;-3.85;75.18
75553;BME280;64136;53.118;17.996;2023-02-28T03:37:23;102593.35;;;-3.82;75.16
75553;BME280;64136;53.118;17.996;2023-02-28T03:40:02;102591.44;;;-3.82;74.90
75553;BME280;64136;53.118;17.996;2023-02-28T03:42:35;102594.89;;;-3.88;75.53
75553;BME280;64136;53.118;17.996;2023-02-28T03:45:05;102597.05;;;-3.99;76.46
75553;BME280;64136;53.118;17.996;2023-02-28T03:47:40;102604.31;;;-4.05;77.20
75553;BME280;64136;53.118;17.996;2023-02-28T03:50:23;102604.30;;;-4.12;77.70
75553;BME280;64136;53.118;17.996;2023-02-28T03:52:55;102608.86;;;-4.22;78.29
75553;BME280;64136;53.118;17.996;2023-02-28T03:55:36;102608.98;;;-4.30;78.60
75553;BME280;64136;53.118;17.996;2023-02-28T03:58:19;102609.10;;;-4.32;78.80
75553;BME280;64136;53.118;17.996;2023-02-28T04:00:57;102604.73;;;-4.33;78.89
75553;BME280;64136;53.118;17.996;2023-02-28T04:03:25;102608.30;;;-4.35;78.48
75553;BME280;64136;53.118;17.996;2023-02-28T04:05:55;102611.90;;;-4.36;78.34
75553;BME280;64136;53.118;17.996;2023-02-28T04:08:23;102612.83;;;-4.40;78.89
75553;BME280;64136;53.118;17.996;2023-02-28T04:11:00;102616.72;;;-4.43;78.88
75553;BME280;64136;53.118;17.996;2023-02-28T04:13:28;102618.60;;;-4.50;79.12
75553;BME280;64136;53.118;17.996;2023-02-28T04:15:54;102618.70;;;-4.52;78.61
75553;BME280;64136;53.118;17.996;2023-02-28T04:18:21;102617.55;;;-4.55;78.68
75553;BME280;64136;53.118;17.996;2023-02-28T04:20:47;102615.05;;;-4.58;78.35
75553;BME280;64136;53.118;17.996;2023-02-28T04:23:13;102613.20;;;-4.57;78.02
75553;BME280;64136;53.118;17.996;2023-02-28T04:25:40;102616.86;;;-4.55;77.60
75553;BME280;64136;53.118;17.996;2023-02-28T04:28:07;102611.31;;;-4.56;77.62
75553;BME280;64136;53.118;17.996;2023-02-28T04:30:33;102613.96;;;-4.54;77.41
75553;BME280;64136;53.118;17.996;2023-02-28T04:35:26;102613.80;;;-4.49;77.21
75553;BME280;64136;53.118;17.996;2023-02-28T04:37:52;102615.85;;;-4.44;77.14
75553;BME280;64136;53.118;17.996;2023-02-28T04:40:18;102616.46;;;-4.40;77.03
75553;BME280;64136;53.118;17.996;2023-02-28T04:42:45;102617.55;;;-4.38;76.64
75553;BME280;64136;53.118;17.996;2023-02-28T04:45:11;102614.71;;;-4.35;76.51
75553;BME280;64136;53.118;17.996;2023-02-28T04:47:37;102619.15;;;-4.31;76.22
75553;BME280;64136;53.118;17.996;2023-02-28T04:50:04;102625.34;;;-4.27;76.81
75553;BME280;64136;53.118;17.996;2023-02-28T04:52:30;102630.52;;;-4.33;76.91
75553;BME280;64136;53.118;17.996;2023-02-28T04:57:23;102624.13;;;-4.50;77.99
75553;BME280;64136;53.118;17.996;2023-02-28T05:02:15;102625.05;;;-4.53;77.59
75553;BME280;64136;53.118;17.996;2023-02-28T05:04:42;102626.91;;;-4.50;77.38
75553;BME280;64136;53.118;17.996;2023-02-28T05:07:08;102625.33;;;-4.45;77.14
75553;BME280;64136;53.118;17.996;2023-02-28T05:09:35;102626.81;;;-4.41;77.13
75553;BME280;64136;53.118;17.996;2023-02-28T05:12:02;102629.83;;;-4.39;76.86
75553;BME280;64136;53.118;17.996;2023-02-28T05:14:29;102634.67;;;-4.38;77.06
75553;BME280;64136;53.118;17.996;2023-02-28T05:16:55;102633.86;;;-4.49;78.24
75553;BME280;64136;53.118;17.996;2023-02-28T05:19:21;102632.16;;;-4.53;78.93
75553;BME280;64136;53.118;17.996;2023-02-28T05:21:51;102632.48;;;-4.53;78.42
75553;BME280;64136;53.118;17.996;2023-02-28T05:24:18;102632.44;;;-4.50;77.68
75553;BME280;64136;53.118;17.996;2023-02-28T05:26:50;102632.58;;;-4.45;77.06
75553;BME280;64136;53.118;17.996;2023-02-28T05:29:18;102633.94;;;-4.40;76.81
75553;BME280;64136;53.118;17.996;2023-02-28T05:31:44;102632.27;;;-4.38;76.79
75553;BME280;64136;53.118;17.996;2023-02-28T05:34:10;102626.09;;;-4.36;76.68
75553;BME280;64136;53.118;17.996;2023-02-28T05:36:39;102626.99;;;-4.35;76.69
75553;BME280;64136;53.118;17.996;2023-02-28T05:41:33;102629.89;;;-4.30;76.36
75553;BME280;64136;53.118;17.996;2023-02-28T05:43:59;102629.44;;;-4.34;76.33
75553;BME280;64136;53.118;17.996;2023-02-28T05:46:26;102635.10;;;-4.36;76.93
75553;BME280;64136;53.118;17.996;2023-02-28T05:48:53;102641.34;;;-4.35;76.44
75553;BME280;64136;53.118;17.996;2023-02-28T05:51:19;102637.83;;;-4.31;76.41
75553;BME280;64136;53.118;17.996;2023-02-28T05:53:45;102640.05;;;-4.27;76.99
75553;BME280;64136;53.118;17.996;2023-02-28T05:56:12;102638.54;;;-4.30;77.11
75553;BME280;64136;53.118;17.996;2023-02-28T05:58:38;102646.64;;;-4.37;77.37
75553;BME280;64136;53.118;17.996;2023-02-28T06:01:21;102643.02;;;-4.43;77.42
75553;BME280;64136;53.118;17.996;2023-02-28T06:03:48;102643.77;;;-4.41;77.17
75553;BME280;64136;53.118;17.996;2023-02-28T06:06:15;102643.40;;;-4.35;76.84
75553;BME280;64136;53.118;17.996;2023-02-28T06:08:41;102648.39;;;-4.31;76.66
75553;BME280;64136;53.118;17.996;2023-02-28T06:11:09;102648.42;;;-4.24;76.67
75553;BME280;64136;53.118;17.996;2023-02-28T06:13:35;102647.64;;;-4.21;76.53
75553;BME280;64136;53.118;17.996;2023-02-28T06:16:02;102651.67;;;-4.19;76.37
75553;BME280;64136;53.118;17.996;2023-02-28T06:18:28;102652.06;;;-4.11;76.27
75553;BME280;64136;53.118;17.996;2023-02-28T06:20:55;102654.23;;;-4.02;76.11
75553;BME280;64136;53.118;17.996;2023-02-28T06:23:22;102652.79;;;-3.91;75.81
75553;BME280;64136;53.118;17.996;2023-02-28T06:28:15;102654.20;;;-3.78;75.94
75553;BME280;64136;53.118;17.996;2023-02-28T06:30:42;102657.43;;;-3.74;75.70
75553;BME280;64136;53.118;17.996;2023-02-28T06:33:08;102661.45;;;-3.73;75.36
75553;BME280;64136;53.118;17.996;2023-02-28T06:35:35;102659.88;;;-3.73;75.41
75553;BME280;64136;53.118;17.996;2023-02-28T06:38:01;102659.00;;;-3.74;75.27
75553;BME280;64136;53.118;17.996;2023-02-28T06:40:27;102664.06;;;-3.72;75.29
75553;BME280;64136;53.118;17.996;2023-02-28T06:42:54;102662.80;;;-3.67;75.44
75553;BME280;64136;53.118;17.996;2023-02-28T06:45:20;102667.07;;;-3.63;75.39
75553;BME280;64136;53.118;17.996;2023-02-28T06:47:46;102665.66;;;-3.64;75.50
75553;BME280;64136;53.118;17.996;2023-02-28T06:50:18;102661.05;;;-3.62;75.66
75553;BME280;64136;53.118;17.996;2023-02-28T06:52:48;102665.73;;;-3.55;75.51
75553;BME280;64136;53.118;17.996;2023-02-28T06:55:20;102668.34;;;-3.48;75.61
75553;BME280;64136;53.118;17.996;2023-02-28T06:57:47;102674.49;;;-3.44;75.96
75553;BME280;64136;53.118;17.996;2023-02-28T07:00:14;102677.85;;;-3.41;76.06
75553;BME280;64136;53.118;17.996;2023-02-28T07:02:40;102683.48;;;-3.45;76.19
75553;BME280;64136;53.118;17.996;2023-02-28T07:05:07;102686.81;;;-3.37;75.98
75553;BME280;64136;53.118;17.996;2023-02-28T07:07:34;102690.95;;;-3.31;75.93
75553;BME280;64136;53.118;17.996;2023-02-28T07:10:02;102692.23;;;-3.21;75.64
75553;BME280;64136;53.118;17.996;2023-02-28T07:12:28;102687.60;;;-3.13;75.52
75553;BME280;64136;53.118;17.996;2023-02-28T07:14:55;102687.88;;;-3.09;75.47
75553;BME280;64136;53.118;17.996;2023-02-28T07:17:22;102689.37;;;-3.04;75.36
75553;BME280;64136;53.118;17.996;2023-02-28T07:19:48;102689.84;;;-2.99;75.11
75553;BME280;64136;53.118;17.996;2023-02-28T07:22:14;102686.73;;;-2.99;75.11
75553;BME280;64136;53.118;17.996;2023-02-28T07:24:41;102685.49;;;-2.99;75.26
75553;BME280;64136;53.118;17.996;2023-02-28T07:27:07;102683.21;;;-2.95;75.17
75553;BME280;64136;53.118;17.996;2023-02-28T07:29:34;102682.95;;;-2.92;75.09
75553;BME280;64136;53.118;17.996;2023-02-28T07:32:00;102677.50;;;-2.87;74.98
75553;BME280;64136;53.118;17.996;2023-02-28T07:34:26;102674.62;;;-2.76;74.99
75553;BME280;64136;53.118;17.996;2023-02-28T07:37:03;102679.40;;;-2.65;74.83
75553;BME280;64136;53.118;17.996;2023-02-28T07:39:31;102679.61;;;-2.55;74.74
75553;BME280;64136;53.118;17.996;2023-02-28T07:41:58;102680.39;;;-2.44;74.63
75553;BME280;64136;53.118;17.996;2023-02-28T07:44:26;102679.61;;;-2.40;74.42
75553;BME280;64136;53.118;17.996;2023-02-28T07:46:52;102678.45;;;-2.37;74.46
75553;BME280;64136;53.118;17.996;2023-02-28T07:49:19;102673.39;;;-2.30;74.51
75553;BME280;64136;53.118;17.996;2023-02-28T07:51:47;102675.36;;;-2.21;74.51
75553;BME280;64136;53.118;17.996;2023-02-28T07:54:14;102672.36;;;-2.13;74.35
75553;BME280;64136;53.118;17.996;2023-02-28T07:59:09;102679.44;;;-2.00;74.33
75553;BME280;64136;53.118;17.996;2023-02-28T08:01:39;102683.96;;;-1.90;74.14
75553;BME280;64136;53.118;17.996;2023-02-28T08:04:17;102684.48;;;-1.81;74.07
75553;BME280;64136;53.118;17.996;2023-02-28T08:06:46;102687.95;;;-1.73;74.06
75553;BME280;64136;53.118;17.996;2023-02-28T08:09:12;102688.75;;;-1.67;73.72
75553;BME280;64136;53.118;17.996;2023-02-28T08:11:39;102693.22;;;-1.60;73.93
75553;BME280;64136;53.118;17.996;2023-02-28T08:14:05;102692.73;;;-1.49;73.89
75553;BME280;64136;53.118;17.996;2023-02-28T08:16:31;102691.10;;;-1.43;73.46
75553;BME280;64136;53.118;17.996;2023-02-28T08:19:08;102690.02;;;-1.36;73.71
75553;BME280;64136;53.118;17.996;2023-02-28T08:21:35;102690.87;;;-1.28;73.37
75553;BME280;64136;53.118;17.996;2023-02-28T08:24:01;102687.00;;;-1.19;73.15
75553;BME280;64136;53.118;17.996;2023-02-28T08:26:27;102687.59;;;-1.15;72.46
75553;BME280;64136;53.118;17.996;2023-02-28T08:28:54;102685.50;;;-1.15;72.43
75553;BME280;64136;53.118;17.996;2023-02-28T08:31:30;102680.02;;;-1.12;72.46
75553;BME280;64136;53.118;17.996;2023-02-28T08:33:57;102675.74;;;-1.07;72.17
75553;BME280;64136;53.118;17.996;2023-02-28T08:36:25;102670.01;;;-0.96;71.89
75553;BME280;64136;53.118;17.996;2023-02-28T08:38:52;102672.65;;;-0.93;71.90
75553;BME280;64136;53.118;17.996;2023-02-28T08:41:21;102677.08;;;-0.90;71.43
75553;BME280;64136;53.118;17.996;2023-02-28T08:43:52;102673.02;;;-0.82;71.47
75553;BME280;64136;53.118;17.996;2023-02-28T08:46:20;102672.15;;;-0.70;71.36
75553;BME280;64136;53.118;17.996;2023-02-28T08:49:09;102666.39;;;-0.61;70.87
75553;BME280;64136;53.118;17.996;2023-02-28T08:51:43;102663.92;;;-0.48;71.34
75553;BME280;64136;53.118;17.996;2023-02-28T08:54:19;102662.14;;;-0.41;70.45
75553;BME280;64136;53.118;17.996;2023-02-28T08:56:46;102663.98;;;-0.32;71.27
75553;BME280;64136;53.118;17.996;2023-02-28T08:59:13;102661.17;;;-0.22;70.92
75553;BME280;64136;53.118;17.996;2023-02-28T09:01:40;102658.13;;;-0.15;70.37
75553;BME280;64136;53.118;17.996;2023-02-28T09:04:07;102658.71;;;-0.09;70.44
75553;BME280;64136;53.118;17.996;2023-02-28T09:06:36;102658.41;;;-0.05;69.34
75553;BME280;64136;53.118;17.996;2023-02-28T09:09:02;102656.80;;;0.05;69.54
75553;BME280;64136;53.118;17.996;2023-02-28T09:11:32;102661.63;;;0.18;70.40
75553;BME280;64136;53.118;17.996;2023-02-28T09:13:58;102664.58;;;0.30;70.20
75553;BME280;64136;53.118;17.996;2023-02-28T09:16:26;102663.42;;;0.40;69.24
75553;BME280;64136;53.118;17.996;2023-02-28T09:18:52;102667.20;;;0.48;69.39
75553;BME280;64136;53.118;17.996;2023-02-28T09:21:19;102663.77;;;0.54;68.72
75553;BME280;64136;53.118;17.996;2023-02-28T09:23:46;102663.31;;;0.61;68.50
75553;BME280;64136;53.118;17.996;2023-02-28T09:26:16;102658.98;;;0.66;67.91
75553;BME280;64136;53.118;17.996;2023-02-28T09:28:43;102658.02;;;0.71;67.76
75553;BME280;64136;53.118;17.996;2023-02-28T09:31:15;102658.23;;;0.77;68.76
75553;BME280;64136;53.118;17.996;2023-02-28T09:33:42;102659.16;;;0.85;67.85
75553;BME280;64136;53.118;17.996;2023-02-28T09:36:08;102657.12;;;0.90;66.23
75553;BME280;64136;53.118;17.996;2023-02-28T09:38:35;102655.30;;;1.03;67.91
75553;BME280;64136;53.118;17.996;2023-02-28T09:41:24;102658.70;;;1.14;67.47
75553;BME280;64136;53.118;17.996;2023-02-28T09:44:02;102661.73;;;1.21;66.98
75553;BME280;64136;53.118;17.996;2023-02-28T09:47:12;102666.11;;;1.26;65.73
75553;BME280;64136;53.118;17.996;2023-02-28T09:49:47;102665.09;;;1.32;65.72
75553;BME280;64136;53.118;17.996;2023-02-28T09:52:30;102664.58;;;1.32;62.60
75553;BME280;64136;53.118;17.996;2023-02-28T09:55:11;102660.73;;;1.32;62.64
75553;BME280;64136;53.118;17.996;2023-02-28T09:58:28;102661.30;;;1.35;62.50
75553;BME280;64136;53.118;17.996;2023-02-28T10:01:12;102662.20;;;1.41;63.10
75553;BME280;64136;53.118;17.996;2023-02-28T10:03:57;102663.09;;;1.43;61.38
75553;BME280;64136;53.118;17.996;2023-02-28T10:06:28;102655.79;;;1.50;63.77
75553;BME280;64136;53.118;17.996;2023-02-28T10:09:13;102651.96;;;1.54;63.24
75553;BME280;64136;53.118;17.996;2023-02-28T10:12:12;102659.34;;;1.58;62.70
75553;BME280;64136;53.118;17.996;2023-02-28T10:14:45;102658.28;;;1.58;60.95
75553;BME280;64136;53.118;17.996;2023-02-28T10:17:35;102652.90;;;1.63;62.01
75553;BME280;64136;53.118;17.996;2023-02-28T10:20:19;102656.23;;;1.63;60.74
75553;BME280;64136;53.118;17.996;2023-02-28T10:23:09;102657.11;;;1.67;62.10
75553;BME280;64136;53.118;17.996;2023-02-28T10:25:38;102656.95;;;1.71;60.33
75553;BME280;64136;53.118;17.996;2023-02-28T10:28:13;102655.56;;;1.74;61.11
75553;BME280;64136;53.118;17.996;2023-02-28T10:30:51;102652.13;;;1.84;62.35
75553;BME280;64136;53.118;17.996;2023-02-28T10:36:02;102641.52;;;1.97;60.28
75553;BME280;64136;53.118;17.996;2023-02-28T10:38:34;102631.56;;;2.02;61.36
75553;BME280;64136;53.118;17.996;2023-02-28T10:46:48;102630.39;;;2.18;61.12
75553;BME280;64136;53.118;17.996;2023-02-28T10:49:22;102623.23;;;2.25;59.73
75553;BME280;64136;53.118;17.996;2023-02-28T10:51:55;102622.20;;;2.27;58.20
75553;BME280;64136;53.118;17.996;2023-02-28T10:54:32;102614.16;;;2.27;57.58
75553;BME280;64136;53.118;17.996;2023-02-28T11:00:14;102612.76;;;2.27;57.33
75553;BME280;64136;53.118;17.996;2023-02-28T11:02:44;102613.82;;;2.30;56.42
75553;BME280;64136;53.118;17.996;2023-02-28T11:05:33;102607.70;;;2.34;56.14
75553;BME280;64136;53.118;17.996;2023-02-28T11:08:16;102602.98;;;2.42;57.63
75553;BME280;64136;53.118;17.996;2023-02-28T11:10:48;102602.11;;;2.48;56.41
75553;BME280;64136;53.118;17.996;2023-02-28T11:13:17;102606.51;;;2.52;56.79
75553;BME280;64136;53.118;17.996;2023-02-28T11:15:52;102602.30;;;2.54;56.13
75553;BME280;64136;53.118;17.996;2023-02-28T11:18:39;102596.70;;;2.60;56.10
75553;BME280;64136;53.118;17.996;2023-02-28T11:21:08;102597.05;;;2.62;54.52
75553;BME280;64136;53.118;17.996;2023-02-28T11:23:52;102602.64;;;2.71;55.07
75553;BME280;64136;53.118;17.996;2023-02-28T11:26:38;102601.61;;;2.80;55.84
75553;BME280;64136;53.118;17.996;2023-02-28T11:33:00;102602.29;;;2.88;56.40
75553;BME280;64136;53.118;17.996;2023-02-28T11:35:38;102599.30;;;2.90;53.83
75553;BME280;64136;53.118;17.996;2023-02-28T11:38:11;102595.45;;;2.91;54.08
75553;BME280;64136;53.118;17.996;2023-02-28T11:41:09;102587.41;;;2.98;55.99
75553;BME280;64136;53.118;17.996;2023-02-28T11:46:36;102583.21;;;3.01;54.17
75553;BME280;64136;53.118;17.996;2023-02-28T11:49:21;102578.98;;;3.08;54.70
75553;BME280;64136;53.118;17.996;2023-02-28T11:51:59;102577.38;;;3.14;55.10
75553;BME280;64136;53.118;17.996;2023-02-28T12:00:38;102573.51;;;3.29;54.46
75553;BME280;64136;53.118;17.996;2023-02-28T12:08:49;102566.30;;;3.40;54.72
75553;BME280;64136;53.118;17.996;2023-02-28T12:14:41;102560.17;;;3.37;53.09
75553;BME280;64136;53.118;17.996;2023-02-28T12:23:19;102560.86;;;3.40;53.09
75553;BME280;64136;53.118;17.996;2023-02-28T12:26:06;102565.04;;;3.48;53.50
75553;BME280;64136;53.118;17.996;2023-02-28T12:28:48;102556.58;;;3.56;53.21
75553;BME280;64136;53.118;17.996;2023-02-28T12:31:23;102557.80;;;3.60;52.11
75553;BME280;64136;53.118;17.996;2023-02-28T12:34:03;102557.42;;;3.67;52.32
75553;BME280;64136;53.118;17.996;2023-02-28T12:36:33;102560.27;;;3.60;51.45
75553;BME280;64136;53.118;17.996;2023-02-28T12:39:12;102557.44;;;3.64;51.76
75553;BME280;64136;53.118;17.996;2023-02-28T12:41:48;102554.27;;;3.98;52.16
75553;BME280;64136;53.118;17.996;2023-02-28T12:44:23;102554.80;;;5.03;49.28
75553;BME280;64136;53.118;17.996;2023-02-28T12:46:56;102548.83;;;6.15;47.34
75553;BME280;64136;53.118;17.996;2023-02-28T12:49:41;102541.52;;;7.13;45.75
75553;BME280;64136;53.118;17.996;2023-02-28T12:52:10;102532.80;;;7.85;42.68
75553;BME280;64136;53.118;17.996;2023-02-28T12:54:48;102532.27;;;8.52;43.34
75553;BME280;64136;53.118;17.996;2023-02-28T12:57:28;102527.82;;;8.88;38.67
75553;BME280;64136;53.118;17.996;2023-02-28T13:03:03;102512.25;;;9.80;38.16
75553;BME280;64136;53.118;17.996;2023-02-28T13:09:03;102508.84;;;11.04;41.93
75553;BME280;64136;53.118;17.996;2023-02-28T13:11:32;102501.15;;;11.62;37.35
75553;BME280;64136;53.118;17.996;2023-02-28T13:14:02;102496.81;;;11.92;32.96
75553;BME280;64136;53.118;17.996;2023-02-28T13:16:50;102495.73;;;12.36;32.71
75553;BME280;64136;53.118;17.996;2023-02-28T13:19:18;102500.73;;;12.88;35.20
75553;BME280;64136;53.118;17.996;2023-02-28T13:21:47;102499.76;;;13.42;34.98
75553;BME280;64136;53.118;17.996;2023-02-28T13:24:38;102494.02;;;13.62;33.19
75553;BME280;64136;53.118;17.996;2023-02-28T13:36:30;102484.48;;;13.57;28.79
75553;BME280;64136;53.118;17.996;2023-02-28T13:38:58;102485.12;;;14.13;28.47
75553;BME280;64136;53.118;17.996;2023-02-28T13:41:44;102479.17;;;14.29;29.16
75553;BME280;64136;53.118;17.996;2023-02-28T13:44:22;102470.89;;;14.52;28.69
75553;BME280;64136;53.118;17.996;2023-02-28T13:47:19;102466.36;;;14.91;28.52
75553;BME280;64136;53.118;17.996;2023-02-28T13:49:47;102468.35;;;15.49;29.74
75553;BME280;64136;53.118;17.996;2023-02-28T13:52:20;102469.05;;;15.59;27.94
75553;BME280;64136;53.118;17.996;2023-02-28T14:03:44;102455.29;;;15.82;25.66
75553;BME280;64136;53.118;17.996;2023-02-28T14:06:24;102445.26;;;15.34;26.29
75553;BME280;64136;53.118;17.996;2023-02-28T14:09:16;102447.71;;;15.57;28.05
75553;BME280;64136;53.118;17.996;2023-02-28T14:11:46;102445.59;;;15.73;26.96
75553;BME280;64136;53.118;17.996;2023-02-28T14:17:04;102443.94;;;16.59;26.29
75553;BME280;64136;53.118;17.996;2023-02-28T14:19:33;102443.98;;;16.04;25.49
75553;BME280;64136;53.118;17.996;2023-02-28T14:22:21;102445.97;;;16.28;26.58
75553;BME280;64136;53.118;17.996;2023-02-28T14:25:11;102446.15;;;16.79;24.85
75553;BME280;64136;53.118;17.996;2023-02-28T14:33:45;102438.59;;;16.91;23.66
75553;BME280;64136;53.118;17.996;2023-02-28T14:36:33;102431.21;;;17.37;24.12
75553;BME280;64136;53.118;17.996;2023-02-28T14:39:06;102425.21;;;17.49;23.08
75553;BME280;64136;53.118;17.996;2023-02-28T14:41:36;102424.38;;;15.83;23.59
75553;BME280;64136;53.118;17.996;2023-02-28T14:44:18;102427.05;;;14.09;26.87
75553;BME280;64136;53.118;17.996;2023-02-28T14:52:05;102429.02;;;9.81;31.37
75553;BME280;64136;53.118;17.996;2023-02-28T14:54:32;102438.21;;;8.69;32.42
75553;BME280;64136;53.118;17.996;2023-02-28T14:56:59;102439.95;;;8.30;32.75
75553;BME280;64136;53.118;17.996;2023-02-28T14:59:31;102440.48;;;8.01;33.28
75553;BME280;64136;53.118;17.996;2023-02-28T15:08:15;102445.31;;;6.40;38.59
75553;BME280;64136;53.118;17.996;2023-02-28T15:11:19;102441.84;;;6.07;39.62